sensor_id;sensor_type;location;lat;lon;timestamp;P1;durP1;ratioP1;P2;durP2;ratioP2
58760;SDS011;44529;47.464;19.014;2023-02-28T00:02:56;14.60;;;8.70;;
58760;SDS011;44529;47.464;19.014;2023-02-28T00:05:59;12.30;;;8.80;;
58760;SDS011;44529;47.464;19.014;2023-02-28T00:09:02;13.68;;;8.85;;
58760;SDS011;44529;47.464;19.014;2023-02-28T00:12:06;10.73;;;8.13;;
58760;SDS011;44529;47.464;19.014;2023-02-28T00:15:11;11.32;;;8.55;;
58760;SDS011;44529;47.464;19.014;2023-02-28T00:18:14;11.15;;;8.38;;
58760;SDS011;44529;47.464;19.014;2023-02-28T00:21:16;14.32;;;8.93;;
58760;SDS011;44529;47.464;19.014;2023-02-28T00:24:20;11.57;;;9.13;;
58760;SDS011;44529;47.464;19.014;2023-02-28T00:27:22;12.10;;;8.57;;
58760;SDS011;44529;47.464;19.014;2023-02-28T00:30:25;10.85;;;8.30;;
58760;SDS011;44529;47.464;19.014;2023-02-28T00:33:28;10.43;;;8.70;;
58760;SDS011;44529;47.464;19.014;2023-02-28T00:36:31;14.07;;;8.80;;
58760;SDS011;44529;47.464;19.014;2023-02-28T00:39:33;13.43;;;8.45;;
58760;SDS011;44529;47.464;19.014;2023-02-28T00:42:37;14.93;;;8.73;;
58760;SDS011;44529;47.464;19.014;2023-02-28T00:45:40;14.70;;;8.15;;
58760;SDS011;44529;47.464;19.014;2023-02-28T00:48:43;12.07;;;8.63;;
58760;SDS011;44529;47.464;19.014;2023-02-28T00:51:46;13.32;;;8.43;;
58760;SDS011;44529;47.464;19.014;2023-02-28T00:54:48;11.52;;;7.87;;
58760;SDS011;44529;47.464;19.014;2023-02-28T00:57:51;12.80;;;8.20;;
58760;SDS011;44529;47.464;19.014;2023-02-28T01:00:54;11.05;;;7.82;;
58760;SDS011;44529;47.464;19.014;2023-02-28T01:03:57;16.90;;;8.63;;
58760;SDS011;44529;47.464;19.014;2023-02-28T01:07:00;11.57;;;7.62;;
58760;SDS011;44529;47.464;19.014;2023-02-28T01:10:03;12.98;;;8.40;;
58760;SDS011;44529;47.464;19.014;2023-02-28T01:13:06;14.38;;;8.65;;
58760;SDS011;44529;47.464;19.014;2023-02-28T01:16:11;15.05;;;8.60;;
58760;SDS011;44529;47.464;19.014;2023-02-28T01:19:15;11.20;;;8.25;;
58760;SDS011;44529;47.464;19.014;2023-02-28T01:22:17;10.95;;;8.20;;
58760;SDS011;44529;47.464;19.014;2023-02-28T01:25:20;11.12;;;8.10;;
58760;SDS011;44529;47.464;19.014;2023-02-28T01:28:22;10.50;;;7.50;;
58760;SDS011;44529;47.464;19.014;2023-02-28T01:31:25;13.80;;;7.95;;
58760;SDS011;44529;47.464;19.014;2023-02-28T01:34:28;11.57;;;7.93;;
58760;SDS011;44529;47.464;19.014;2023-02-28T01:37:30;10.63;;;7.60;;
58760;SDS011;44529;47.464;19.014;2023-02-28T01:40:33;10.73;;;7.62;;
58760;SDS011;44529;47.464;19.014;2023-02-28T01:46:43;10.70;;;7.15;;
58760;SDS011;44529;47.464;19.014;2023-02-28T01:49:48;10.68;;;7.50;;
58760;SDS011;44529;47.464;19.014;2023-02-28T01:52:54;9.82;;;7.15;;
58760;SDS011;44529;47.464;19.014;2023-02-28T01:55:59;10.20;;;7.55;;
58760;SDS011;44529;47.464;19.014;2023-02-28T01:59:02;11.23;;;7.70;;
58760;SDS011;44529;47.464;19.014;2023-02-28T02:02:05;11.68;;;7.07;;
58760;SDS011;44529;47.464;19.014;2023-02-28T02:05:11;13.00;;;7.85;;
58760;SDS011;44529;47.464;19.014;2023-02-28T02:08:23;12.02;;;7.78;;
58760;SDS011;44529;47.464;19.014;2023-02-28T02:11:28;9.80;;;7.85;;
58760;SDS011;44529;47.464;19.014;2023-02-28T02:14:50;12.02;;;7.72;;
58760;SDS011;44529;47.464;19.014;2023-02-28T02:18:26;10.27;;;8.15;;
58760;SDS011;44529;47.464;19.014;2023-02-28T02:25:10;13.02;;;8.60;;
58760;SDS011;44529;47.464;19.014;2023-02-28T02:38:53;16.30;;;9.02;;
58760;SDS011;44529;47.464;19.014;2023-02-28T02:41:38;11.70;;;8.88;;
58760;SDS011;44529;47.464;19.014;2023-02-28T02:45:01;12.10;;;8.93;;
58760;SDS011;44529;47.464;19.014;2023-02-28T02:48:10;14.50;;;9.40;;
58760;SDS011;44529;47.464;19.014;2023-02-28T02:51:16;12.57;;;8.93;;
58760;SDS011;44529;47.464;19.014;2023-02-28T02:54:24;13.32;;;8.68;;
58760;SDS011;44529;47.464;19.014;2023-02-28T02:57:43;15.60;;;9.15;;
58760;SDS011;44529;47.464;19.014;2023-02-28T03:00:53;12.10;;;8.13;;
58760;SDS011;44529;47.464;19.014;2023-02-28T03:04:04;12.13;;;9.03;;
58760;SDS011;44529;47.464;19.014;2023-02-28T03:07:10;13.00;;;9.18;;
58760;SDS011;44529;47.464;19.014;2023-02-28T03:10:30;12.75;;;8.82;;
58760;SDS011;44529;47.464;19.014;2023-02-28T03:17:35;12.88;;;8.73;;
58760;SDS011;44529;47.464;19.014;2023-02-28T03:21:02;14.77;;;8.80;;
58760;SDS011;44529;47.464;19.014;2023-02-28T03:31:15;13.70;;;8.82;;
58760;SDS011;44529;47.464;19.014;2023-02-28T03:37:26;15.50;;;9.23;;
58760;SDS011;44529;47.464;19.014;2023-02-28T03:40:32;13.43;;;8.68;;
58760;SDS011;44529;47.464;19.014;2023-02-28T03:43:39;12.27;;;8.98;;
58760;SDS011;44529;47.464;19.014;2023-02-28T03:46:49;13.13;;;9.18;;
58760;SDS011;44529;47.464;19.014;2023-02-28T03:53:39;14.43;;;9.02;;
58760;SDS011;44529;47.464;19.014;2023-02-28T03:56:54;14.35;;;9.13;;
58760;SDS011;44529;47.464;19.014;2023-02-28T04:00:07;13.15;;;8.95;;
58760;SDS011;44529;47.464;19.014;2023-02-28T04:03:14;15.73;;;9.55;;
58760;SDS011;44529;47.464;19.014;2023-02-28T04:06:18;20.30;;;10.25;;
58760;SDS011;44529;47.464;19.014;2023-02-28T04:09:21;16.83;;;9.13;;
58760;SDS011;44529;47.464;19.014;2023-02-28T04:12:26;13.82;;;9.18;;
58760;SDS011;44529;47.464;19.014;2023-02-28T04:15:28;14.50;;;9.05;;
58760;SDS011;44529;47.464;19.014;2023-02-28T04:18:30;14.55;;;8.48;;
58760;SDS011;44529;47.464;19.014;2023-02-28T04:21:37;12.98;;;9.32;;
58760;SDS011;44529;47.464;19.014;2023-02-28T04:24:42;11.50;;;8.85;;
58760;SDS011;44529;47.464;19.014;2023-02-28T04:27:45;12.30;;;9.10;;
58760;SDS011;44529;47.464;19.014;2023-02-28T04:30:47;13.68;;;9.00;;
58760;SDS011;44529;47.464;19.014;2023-02-28T04:33:55;14.95;;;9.15;;
58760;SDS011;44529;47.464;19.014;2023-02-28T04:36:58;12.50;;;8.82;;
58760;SDS011;44529;47.464;19.014;2023-02-28T04:40:18;13.80;;;9.00;;
58760;SDS011;44529;47.464;19.014;2023-02-28T04:43:20;13.25;;;9.45;;
58760;SDS011;44529;47.464;19.014;2023-02-28T04:46:23;12.88;;;9.02;;
58760;SDS011;44529;47.464;19.014;2023-02-28T04:49:26;14.10;;;8.57;;
58760;SDS011;44529;47.464;19.014;2023-02-28T04:52:28;14.15;;;9.38;;
58760;SDS011;44529;47.464;19.014;2023-02-28T04:55:31;15.60;;;8.98;;
58760;SDS011;44529;47.464;19.014;2023-02-28T04:58:33;15.38;;;9.57;;
58760;SDS011;44529;47.464;19.014;2023-02-28T05:01:36;19.08;;;8.38;;
58760;SDS011;44529;47.464;19.014;2023-02-28T05:04:38;12.73;;;9.38;;
58760;SDS011;44529;47.464;19.014;2023-02-28T05:07:41;16.15;;;8.90;;
58760;SDS011;44529;47.464;19.014;2023-02-28T05:10:43;16.25;;;9.57;;
58760;SDS011;44529;47.464;19.014;2023-02-28T05:13:46;12.00;;;8.60;;
58760;SDS011;44529;47.464;19.014;2023-02-28T05:16:49;13.70;;;9.40;;
58760;SDS011;44529;47.464;19.014;2023-02-28T05:19:51;13.80;;;9.10;;
58760;SDS011;44529;47.464;19.014;2023-02-28T05:22:55;14.25;;;9.13;;
58760;SDS011;44529;47.464;19.014;2023-02-28T05:26:00;16.25;;;9.70;;
58760;SDS011;44529;47.464;19.014;2023-02-28T05:29:02;14.07;;;8.90;;
58760;SDS011;44529;47.464;19.014;2023-02-28T05:32:04;14.35;;;8.52;;
58760;SDS011;44529;47.464;19.014;2023-02-28T05:35:07;14.40;;;8.30;;
58760;SDS011;44529;47.464;19.014;2023-02-28T05:38:10;11.85;;;7.65;;
58760;SDS011;44529;47.464;19.014;2023-02-28T05:41:13;15.10;;;9.02;;
58760;SDS011;44529;47.464;19.014;2023-02-28T05:44:16;15.85;;;8.68;;
58760;SDS011;44529;47.464;19.014;2023-02-28T05:47:18;11.38;;;8.27;;
58760;SDS011;44529;47.464;19.014;2023-02-28T05:50:21;14.02;;;8.82;;
58760;SDS011;44529;47.464;19.014;2023-02-28T05:53:23;15.25;;;9.05;;
58760;SDS011;44529;47.464;19.014;2023-02-28T05:56:26;11.48;;;9.13;;
58760;SDS011;44529;47.464;19.014;2023-02-28T05:59:29;13.75;;;9.00;;
58760;SDS011;44529;47.464;19.014;2023-02-28T06:02:31;13.10;;;9.05;;
58760;SDS011;44529;47.464;19.014;2023-02-28T06:05:34;13.75;;;9.07;;
58760;SDS011;44529;47.464;19.014;2023-02-28T06:08:36;13.80;;;8.95;;
58760;SDS011;44529;47.464;19.014;2023-02-28T06:11:39;12.35;;;9.52;;
58760;SDS011;44529;47.464;19.014;2023-02-28T06:14:41;13.15;;;9.40;;
58760;SDS011;44529;47.464;19.014;2023-02-28T06:17:44;15.10;;;9.13;;
58760;SDS011;44529;47.464;19.014;2023-02-28T06:20:55;11.30;;;8.85;;
58760;SDS011;44529;47.464;19.014;2023-02-28T06:23:58;13.55;;;9.32;;
58760;SDS011;44529;47.464;19.014;2023-02-28T06:27:00;10.70;;;7.95;;
58760;SDS011;44529;47.464;19.014;2023-02-28T06:30:07;13.40;;;8.80;;
58760;SDS011;44529;47.464;19.014;2023-02-28T06:33:10;17.60;;;8.77;;
58760;SDS011;44529;47.464;19.014;2023-02-28T06:36:12;14.32;;;8.73;;
58760;SDS011;44529;47.464;19.014;2023-02-28T06:39:16;18.62;;;9.20;;
58760;SDS011;44529;47.464;19.014;2023-02-28T06:42:23;16.27;;;8.45;;
58760;SDS011;44529;47.464;19.014;2023-02-28T06:45:34;12.40;;;8.27;;
58760;SDS011;44529;47.464;19.014;2023-02-28T06:48:38;12.73;;;8.73;;
58760;SDS011;44529;47.464;19.014;2023-02-28T06:51:42;12.70;;;8.50;;
58760;SDS011;44529;47.464;19.014;2023-02-28T06:54:51;12.13;;;8.27;;
58760;SDS011;44529;47.464;19.014;2023-02-28T06:58:02;11.60;;;8.10;;
58760;SDS011;44529;47.464;19.014;2023-02-28T07:01:22;12.02;;;8.20;;
58760;SDS011;44529;47.464;19.014;2023-02-28T07:04:36;13.23;;;7.90;;
58760;SDS011;44529;47.464;19.014;2023-02-28T07:07:39;10.13;;;7.70;;
58760;SDS011;44529;47.464;19.014;2023-02-28T07:10:45;12.48;;;8.07;;
58760;SDS011;44529;47.464;19.014;2023-02-28T07:13:49;9.25;;;7.25;;
58760;SDS011;44529;47.464;19.014;2023-02-28T07:16:52;11.80;;;7.80;;
58760;SDS011;44529;47.464;19.014;2023-02-28T07:19:55;11.40;;;7.62;;
58760;SDS011;44529;47.464;19.014;2023-02-28T07:22:58;14.57;;;8.10;;
58760;SDS011;44529;47.464;19.014;2023-02-28T07:26:01;11.10;;;7.75;;
58760;SDS011;44529;47.464;19.014;2023-02-28T07:29:29;16.58;;;8.10;;
58760;SDS011;44529;47.464;19.014;2023-02-28T07:32:42;10.98;;;7.45;;
58760;SDS011;44529;47.464;19.014;2023-02-28T07:35:46;14.55;;;7.53;;
58760;SDS011;44529;47.464;19.014;2023-02-28T07:38:50;13.48;;;7.70;;
58760;SDS011;44529;47.464;19.014;2023-02-28T07:41:54;10.85;;;7.45;;
58760;SDS011;44529;47.464;19.014;2023-02-28T07:44:59;12.70;;;7.43;;
58760;SDS011;44529;47.464;19.014;2023-02-28T07:48:02;10.02;;;7.05;;
58760;SDS011;44529;47.464;19.014;2023-02-28T07:51:04;12.20;;;6.85;;
58760;SDS011;44529;47.464;19.014;2023-02-28T07:54:07;9.98;;;6.82;;
58760;SDS011;44529;47.464;19.014;2023-02-28T07:57:11;9.00;;;6.70;;
58760;SDS011;44529;47.464;19.014;2023-02-28T08:00:14;9.10;;;6.65;;
58760;SDS011;44529;47.464;19.014;2023-02-28T08:03:23;9.57;;;6.32;;
58760;SDS011;44529;47.464;19.014;2023-02-28T08:06:28;7.07;;;5.53;;
58760;SDS011;44529;47.464;19.014;2023-02-28T08:09:31;8.77;;;6.18;;
58760;SDS011;44529;47.464;19.014;2023-02-28T08:12:33;8.60;;;5.85;;
58760;SDS011;44529;47.464;19.014;2023-02-28T08:15:36;9.57;;;6.12;;
58760;SDS011;44529;47.464;19.014;2023-02-28T08:18:38;9.07;;;6.57;;
58760;SDS011;44529;47.464;19.014;2023-02-28T08:21:41;9.82;;;6.12;;
58760;SDS011;44529;47.464;19.014;2023-02-28T08:24:43;7.57;;;5.40;;
58760;SDS011;44529;47.464;19.014;2023-02-28T08:27:46;8.27;;;5.65;;
58760;SDS011;44529;47.464;19.014;2023-02-28T08:30:48;14.30;;;7.32;;
58760;SDS011;44529;47.464;19.014;2023-02-28T08:33:51;10.00;;;6.50;;
58760;SDS011;44529;47.464;19.014;2023-02-28T08:36:54;10.07;;;6.47;;
58760;SDS011;44529;47.464;19.014;2023-02-28T08:39:58;7.75;;;5.78;;
58760;SDS011;44529;47.464;19.014;2023-02-28T08:43:01;8.52;;;5.35;;
58760;SDS011;44529;47.464;19.014;2023-02-28T08:46:03;8.55;;;5.97;;
58760;SDS011;44529;47.464;19.014;2023-02-28T08:49:06;7.75;;;6.12;;
58760;SDS011;44529;47.464;19.014;2023-02-28T08:52:09;7.85;;;6.43;;
58760;SDS011;44529;47.464;19.014;2023-02-28T08:55:11;10.50;;;6.22;;
58760;SDS011;44529;47.464;19.014;2023-02-28T08:58:14;9.45;;;6.57;;
58760;SDS011;44529;47.464;19.014;2023-02-28T09:01:20;12.57;;;6.18;;
58760;SDS011;44529;47.464;19.014;2023-02-28T09:04:33;7.30;;;5.80;;
58760;SDS011;44529;47.464;19.014;2023-02-28T09:07:36;8.88;;;5.90;;
58760;SDS011;44529;47.464;19.014;2023-02-28T09:10:38;7.47;;;5.93;;
58760;SDS011;44529;47.464;19.014;2023-02-28T09:13:41;8.63;;;5.82;;
58760;SDS011;44529;47.464;19.014;2023-02-28T09:16:44;9.43;;;6.62;;
58760;SDS011;44529;47.464;19.014;2023-02-28T09:19:49;8.55;;;6.47;;
58760;SDS011;44529;47.464;19.014;2023-02-28T09:22:52;8.02;;;6.07;;
58760;SDS011;44529;47.464;19.014;2023-02-28T09:25:55;11.00;;;6.78;;
58760;SDS011;44529;47.464;19.014;2023-02-28T09:28:57;11.20;;;6.75;;
58760;SDS011;44529;47.464;19.014;2023-02-28T09:32:01;10.77;;;7.20;;
58760;SDS011;44529;47.464;19.014;2023-02-28T09:35:04;9.15;;;6.78;;
58760;SDS011;44529;47.464;19.014;2023-02-28T09:38:07;8.50;;;7.18;;
58760;SDS011;44529;47.464;19.014;2023-02-28T09:41:11;9.52;;;6.72;;
58760;SDS011;44529;47.464;19.014;2023-02-28T09:44:22;10.23;;;6.87;;
58760;SDS011;44529;47.464;19.014;2023-02-28T09:47:43;13.55;;;6.70;;
58760;SDS011;44529;47.464;19.014;2023-02-28T09:50:59;8.63;;;5.97;;
58760;SDS011;44529;47.464;19.014;2023-02-28T09:54:05;9.88;;;6.57;;
58760;SDS011;44529;47.464;19.014;2023-02-28T09:57:29;11.77;;;7.10;;
58760;SDS011;44529;47.464;19.014;2023-02-28T10:00:37;10.20;;;6.65;;
58760;SDS011;44529;47.464;19.014;2023-02-28T10:03:43;11.48;;;7.20;;
58760;SDS011;44529;47.464;19.014;2023-02-28T10:06:53;8.43;;;7.20;;
58760;SDS011;44529;47.464;19.014;2023-02-28T10:09:56;9.52;;;7.28;;
58760;SDS011;44529;47.464;19.014;2023-02-28T10:13:04;10.60;;;7.43;;
58760;SDS011;44529;47.464;19.014;2023-02-28T10:16:26;8.95;;;6.68;;
58760;SDS011;44529;47.464;19.014;2023-02-28T10:23:09;10.80;;;5.55;;
58760;SDS011;44529;47.464;19.014;2023-02-28T10:26:24;7.18;;;5.78;;
58760;SDS011;44529;47.464;19.014;2023-02-28T10:29:31;10.35;;;6.12;;
58760;SDS011;44529;47.464;19.014;2023-02-28T10:32:35;10.10;;;6.72;;
58760;SDS011;44529;47.464;19.014;2023-02-28T10:35:41;10.73;;;6.28;;
58760;SDS011;44529;47.464;19.014;2023-02-28T10:38:45;9.23;;;6.18;;
58760;SDS011;44529;47.464;19.014;2023-02-28T10:41:48;10.25;;;6.80;;
58760;SDS011;44529;47.464;19.014;2023-02-28T10:51:17;9.13;;;5.80;;
58760;SDS011;44529;47.464;19.014;2023-02-28T10:54:32;11.85;;;6.07;;
58760;SDS011;44529;47.464;19.014;2023-02-28T10:57:39;10.13;;;5.95;;
58760;SDS011;44529;47.464;19.014;2023-02-28T11:00:42;7.22;;;5.68;;
58760;SDS011;44529;47.464;19.014;2023-02-28T11:03:45;7.50;;;6.35;;
58760;SDS011;44529;47.464;19.014;2023-02-28T11:06:56;8.27;;;6.45;;
58760;SDS011;44529;47.464;19.014;2023-02-28T11:10:02;9.45;;;6.07;;
58760;SDS011;44529;47.464;19.014;2023-02-28T11:13:06;9.65;;;6.10;;
58760;SDS011;44529;47.464;19.014;2023-02-28T11:16:09;10.95;;;5.78;;
58760;SDS011;44529;47.464;19.014;2023-02-28T11:19:22;11.07;;;5.70;;
58760;SDS011;44529;47.464;19.014;2023-02-28T11:22:36;9.13;;;6.55;;
58760;SDS011;44529;47.464;19.014;2023-02-28T11:25:48;9.02;;;6.53;;
58760;SDS011;44529;47.464;19.014;2023-02-28T11:29:03;11.63;;;5.97;;
58760;SDS011;44529;47.464;19.014;2023-02-28T11:32:31;12.68;;;6.65;;
58760;SDS011;44529;47.464;19.014;2023-02-28T11:35:36;9.85;;;7.12;;
58760;SDS011;44529;47.464;19.014;2023-02-28T11:38:41;9.68;;;5.85;;
58760;SDS011;44529;47.464;19.014;2023-02-28T11:51:34;8.93;;;6.90;;
58760;SDS011;44529;47.464;19.014;2023-02-28T11:55:04;11.35;;;6.57;;
58760;SDS011;44529;47.464;19.014;2023-02-28T11:58:20;6.95;;;5.28;;
58760;SDS011;44529;47.464;19.014;2023-02-28T12:01:37;10.32;;;6.03;;
58760;SDS011;44529;47.464;19.014;2023-02-28T12:27:00;6.65;;;5.95;;
58760;SDS011;44529;47.464;19.014;2023-02-28T12:30:15;8.67;;;6.63;;
58760;SDS011;44529;47.464;19.014;2023-02-28T12:33:22;8.52;;;7.20;;
58760;SDS011;44529;47.464;19.014;2023-02-28T12:36:31;9.83;;;6.63;;
58760;SDS011;44529;47.464;19.014;2023-02-28T12:39:40;11.05;;;6.82;;
58760;SDS011;44529;47.464;19.014;2023-02-28T12:42:56;8.75;;;6.87;;
58760;SDS011;44529;47.464;19.014;2023-02-28T12:46:10;10.10;;;6.80;;
58760;SDS011;44529;47.464;19.014;2023-02-28T12:49:17;8.73;;;5.80;;
58760;SDS011;44529;47.464;19.014;2023-02-28T12:53:00;9.13;;;6.10;;
58760;SDS011;44529;47.464;19.014;2023-02-28T13:10:06;7.68;;;5.87;;
58760;SDS011;44529;47.464;19.014;2023-02-28T13:13:16;8.75;;;5.57;;
58760;SDS011;44529;47.464;19.014;2023-02-28T13:16:22;12.02;;;5.70;;
58760;SDS011;44529;47.464;19.014;2023-02-28T13:19:32;9.85;;;6.70;;
58760;SDS011;44529;47.464;19.014;2023-02-28T13:22:41;10.55;;;6.70;;
58760;SDS011;44529;47.464;19.014;2023-02-28T13:38:15;7.75;;;5.80;;
58760;SDS011;44529;47.464;19.014;2023-02-28T13:45:18;8.13;;;5.95;;
58760;SDS011;44529;47.464;19.014;2023-02-28T13:48:19;9.15;;;5.57;;
58760;SDS011;44529;47.464;19.014;2023-02-28T13:54:57;8.02;;;5.60;;
58760;SDS011;44529;47.464;19.014;2023-02-28T14:01:52;9.75;;;5.45;;
58760;SDS011;44529;47.464;19.014;2023-02-28T14:05:06;10.07;;;5.55;;
58760;SDS011;44529;47.464;19.014;2023-02-28T14:08:20;7.72;;;5.37;;
58760;SDS011;44529;47.464;19.014;2023-02-28T14:11:30;9.55;;;5.30;;
58760;SDS011;44529;47.464;19.014;2023-02-28T14:17:36;7.40;;;4.70;;
58760;SDS011;44529;47.464;19.014;2023-02-28T14:20:40;7.12;;;4.90;;
58760;SDS011;44529;47.464;19.014;2023-02-28T14:27:29;8.50;;;5.62;;
58760;SDS011;44529;47.464;19.014;2023-02-28T14:30:52;6.43;;;5.30;;
58760;SDS011;44529;47.464;19.014;2023-02-28T14:34:12;6.45;;;4.95;;
58760;SDS011;44529;47.464;19.014;2023-02-28T14:37:19;8.63;;;5.22;;
58760;SDS011;44529;47.464;19.014;2023-02-28T14:40:33;6.40;;;4.70;;
58760;SDS011;44529;47.464;19.014;2023-02-28T14:43:47;6.30;;;4.85;;
58760;SDS011;44529;47.464;19.014;2023-02-28T14:46:53;7.28;;;4.55;;
58760;SDS011;44529;47.464;19.014;2023-02-28T14:50:26;5.37;;;4.50;;
58760;SDS011;44529;47.464;19.014;2023-02-28T14:56:38;9.73;;;4.93;;
58760;SDS011;44529;47.464;19.014;2023-02-28T14:59:41;9.13;;;5.15;;
58760;SDS011;44529;47.464;19.014;2023-02-28T15:02:44;6.87;;;5.07;;
58760;SDS011;44529;47.464;19.014;2023-02-28T15:05:53;9.65;;;5.50;;
58760;SDS011;44529;47.464;19.014;2023-02-28T15:09:13;7.57;;;5.68;;
58760;SDS011;44529;47.464;19.014;2023-02-28T15:12:17;13.93;;;6.07;;
58760;SDS011;44529;47.464;19.014;2023-02-28T15:15:20;10.25;;;6.35;;
58760;SDS011;44529;47.464;19.014;2023-02-28T15:18:47;8.65;;;5.70;;
58760;SDS011;44529;47.464;19.014;2023-02-28T15:21:57;8.50;;;5.72;;
58760;SDS011;44529;47.464;19.014;2023-02-28T15:28:15;8.10;;;5.55;;
58760;SDS011;44529;47.464;19.014;2023-02-28T15:31:32;9.57;;;5.97;;
58760;SDS011;44529;47.464;19.014;2023-02-28T15:34:57;12.23;;;6.25;;
58760;SDS011;44529;47.464;19.014;2023-02-28T15:38:02;7.15;;;5.50;;
58760;SDS011;44529;47.464;19.014;2023-02-28T15:41:21;8.75;;;6.28;;
58760;SDS011;44529;47.464;19.014;2023-02-28T15:44:39;9.63;;;6.43;;
58760;SDS011;44529;47.464;19.014;2023-02-28T15:47:44;10.65;;;6.20;;
58760;SDS011;44529;47.464;19.014;2023-02-28T15:50:50;10.48;;;6.45;;
58760;SDS011;44529;47.464;19.014;2023-02-28T15:54:01;9.65;;;6.22;;
58760;SDS011;44529;47.464;19.014;2023-02-28T15:57:18;10.73;;;7.28;;
58760;SDS011;44529;47.464;19.014;2023-02-28T16:00:29;14.85;;;6.95;;
58760;SDS011;44529;47.464;19.014;2023-02-28T16:03:37;13.93;;;6.87;;
58760;SDS011;44529;47.464;19.014;2023-02-28T16:07:00;12.13;;;7.53;;
58760;SDS011;44529;47.464;19.014;2023-02-28T16:10:03;10.10;;;7.37;;
58760;SDS011;44529;47.464;19.014;2023-02-28T16:13:06;11.48;;;7.30;;
58760;SDS011;44529;47.464;19.014;2023-02-28T16:16:14;11.43;;;7.90;;
58760;SDS011;44529;47.464;19.014;2023-02-28T16:19:17;12.45;;;7.95;;
58760;SDS011;44529;47.464;19.014;2023-02-28T16:22:21;12.20;;;7.87;;
58760;SDS011;44529;47.464;19.014;2023-02-28T16:25:26;10.75;;;8.30;;
58760;SDS011;44529;47.464;19.014;2023-02-28T16:28:36;12.82;;;8.38;;
58760;SDS011;44529;47.464;19.014;2023-02-28T16:31:40;11.98;;;8.25;;
58760;SDS011;44529;47.464;19.014;2023-02-28T16:34:43;13.75;;;8.25;;
58760;SDS011;44529;47.464;19.014;2023-02-28T16:37:46;13.30;;;7.78;;
58760;SDS011;44529;47.464;19.014;2023-02-28T16:40:49;12.30;;;7.72;;
58760;SDS011;44529;47.464;19.014;2023-02-28T16:43:53;14.05;;;8.00;;
58760;SDS011;44529;47.464;19.014;2023-02-28T16:47:02;9.93;;;7.90;;
58760;SDS011;44529;47.464;19.014;2023-02-28T16:50:14;10.60;;;8.27;;
58760;SDS011;44529;47.464;19.014;2023-02-28T16:53:21;12.23;;;7.72;;
58760;SDS011;44529;47.464;19.014;2023-02-28T16:56:23;10.02;;;8.05;;
58760;SDS011;44529;47.464;19.014;2023-02-28T16:59:27;13.52;;;8.23;;
58760;SDS011;44529;47.464;19.014;2023-02-28T17:02:30;10.85;;;7.87;;
58760;SDS011;44529;47.464;19.014;2023-02-28T17:05:34;11.95;;;7.75;;
58760;SDS011;44529;47.464;19.014;2023-02-28T17:08:40;13.30;;;7.95;;
58760;SDS011;44529;47.464;19.014;2023-02-28T17:11:42;12.75;;;8.15;;
58760;SDS011;44529;47.464;19.014;2023-02-28T17:14:45;13.23;;;8.35;;
58760;SDS011;44529;47.464;19.014;2023-02-28T17:17:47;11.93;;;9.07;;
58760;SDS011;44529;47.464;19.014;2023-02-28T17:20:50;12.93;;;8.75;;
58760;SDS011;44529;47.464;19.014;2023-02-28T17:23:53;13.38;;;9.02;;
58760;SDS011;44529;47.464;19.014;2023-02-28T17:26:55;11.35;;;8.68;;
58760;SDS011;44529;47.464;19.014;2023-02-28T17:29:58;16.00;;;9.27;;
58760;SDS011;44529;47.464;19.014;2023-02-28T17:33:01;13.23;;;9.27;;
58760;SDS011;44529;47.464;19.014;2023-02-28T17:36:04;12.95;;;9.82;;
58760;SDS011;44529;47.464;19.014;2023-02-28T17:39:08;13.30;;;9.15;;
58760;SDS011;44529;47.464;19.014;2023-02-28T17:42:13;13.32;;;9.57;;
58760;SDS011;44529;47.464;19.014;2023-02-28T17:45:15;11.10;;;9.13;;
58760;SDS011;44529;47.464;19.014;2023-02-28T17:48:18;13.98;;;9.18;;
58760;SDS011;44529;47.464;19.014;2023-02-28T17:51:21;13.73;;;9.07;;
58760;SDS011;44529;47.464;19.014;2023-02-28T17:54:25;15.95;;;9.23;;
58760;SDS011;44529;47.464;19.014;2023-02-28T17:57:27;12.95;;;8.90;;
58760;SDS011;44529;47.464;19.014;2023-02-28T18:00:29;11.63;;;8.38;;
58760;SDS011;44529;47.464;19.014;2023-02-28T18:03:34;12.73;;;9.25;;
58760;SDS011;44529;47.464;19.014;2023-02-28T18:06:38;13.88;;;9.27;;
58760;SDS011;44529;47.464;19.014;2023-02-28T18:09:48;13.77;;;9.88;;
58760;SDS011;44529;47.464;19.014;2023-02-28T18:12:51;12.52;;;8.63;;
58760;SDS011;44529;47.464;19.014;2023-02-28T18:15:54;11.40;;;9.10;;
58760;SDS011;44529;47.464;19.014;2023-02-28T18:18:56;11.57;;;8.88;;
58760;SDS011;44529;47.464;19.014;2023-02-28T18:21:59;10.98;;;8.88;;
58760;SDS011;44529;47.464;19.014;2023-02-28T18:25:05;13.02;;;9.05;;
58760;SDS011;44529;47.464;19.014;2023-02-28T18:28:10;11.12;;;9.00;;
58760;SDS011;44529;47.464;19.014;2023-02-28T18:31:14;13.10;;;9.85;;
58760;SDS011;44529;47.464;19.014;2023-02-28T18:34:18;15.35;;;9.50;;
58760;SDS011;44529;47.464;19.014;2023-02-28T18:37:22;12.43;;;10.07;;
58760;SDS011;44529;47.464;19.014;2023-02-28T18:40:25;15.95;;;10.38;;
58760;SDS011;44529;47.464;19.014;2023-02-28T18:43:28;15.38;;;10.50;;
58760;SDS011;44529;47.464;19.014;2023-02-28T18:46:32;13.60;;;10.68;;
58760;SDS011;44529;47.464;19.014;2023-02-28T18:49:34;13.75;;;9.23;;
58760;SDS011;44529;47.464;19.014;2023-02-28T18:52:39;16.17;;;10.90;;
58760;SDS011;44529;47.464;19.014;2023-02-28T18:55:41;13.68;;;10.32;;
58760;SDS011;44529;47.464;19.014;2023-02-28T18:58:44;13.65;;;9.90;;
58760;SDS011;44529;47.464;19.014;2023-02-28T19:01:49;12.73;;;9.80;;
58760;SDS011;44529;47.464;19.014;2023-02-28T19:04:51;16.80;;;10.40;;
58760;SDS011;44529;47.464;19.014;2023-02-28T19:07:53;12.93;;;10.32;;
58760;SDS011;44529;47.464;19.014;2023-02-28T19:10:56;15.70;;;10.52;;
58760;SDS011;44529;47.464;19.014;2023-02-28T19:13:58;16.42;;;10.40;;
58760;SDS011;44529;47.464;19.014;2023-02-28T19:17:02;14.77;;;10.82;;
58760;SDS011;44529;47.464;19.014;2023-02-28T19:20:04;14.57;;;10.60;;
58760;SDS011;44529;47.464;19.014;2023-02-28T19:23:08;15.60;;;10.82;;
58760;SDS011;44529;47.464;19.014;2023-02-28T19:26:20;18.05;;;11.45;;
58760;SDS011;44529;47.464;19.014;2023-02-28T19:29:24;16.02;;;11.43;;
58760;SDS011;44529;47.464;19.014;2023-02-28T19:32:26;16.62;;;12.07;;
58760;SDS011;44529;47.464;19.014;2023-02-28T19:35:29;15.50;;;11.40;;
58760;SDS011;44529;47.464;19.014;2023-02-28T19:38:31;17.55;;;12.13;;
58760;SDS011;44529;47.464;19.014;2023-02-28T19:41:34;17.73;;;12.23;;
58760;SDS011;44529;47.464;19.014;2023-02-28T19:44:36;19.33;;;12.10;;
58760;SDS011;44529;47.464;19.014;2023-02-28T19:47:39;17.35;;;13.00;;
58760;SDS011;44529;47.464;19.014;2023-02-28T19:50:42;18.80;;;12.35;;
58760;SDS011;44529;47.464;19.014;2023-02-28T19:53:45;15.70;;;12.00;;
58760;SDS011;44529;47.464;19.014;2023-02-28T19:56:47;17.42;;;11.68;;
58760;SDS011;44529;47.464;19.014;2023-02-28T19:59:50;17.00;;;12.65;;
58760;SDS011;44529;47.464;19.014;2023-02-28T20:02:53;18.73;;;12.37;;
58760;SDS011;44529;47.464;19.014;2023-02-28T20:05:59;17.75;;;12.27;;
58760;SDS011;44529;47.464;19.014;2023-02-28T20:09:03;18.62;;;11.40;;
58760;SDS011;44529;47.464;19.014;2023-02-28T20:12:06;18.85;;;11.90;;
58760;SDS011;44529;47.464;19.014;2023-02-28T20:15:24;17.35;;;12.30;;
58760;SDS011;44529;47.464;19.014;2023-02-28T20:18:27;17.55;;;12.40;;
58760;SDS011;44529;47.464;19.014;2023-02-28T20:21:30;16.95;;;11.73;;